sensor_id;sensor_type;location;lat;lon;timestamp;temperature;humidity
51175;DHT22;37240;50.104;20.010;2023-01-13T00:04:53;8.50;98.30
51175;DHT22;37240;50.104;20.010;2023-01-13T00:09:53;8.50;98.20
51175;DHT22;37240;50.104;20.010;2023-01-13T00:14:54;8.50;98.20
51175;DHT22;37240;50.104;20.010;2023-01-13T00:19:54;8.40;98.40
51175;DHT22;37240;50.104;20.010;2023-01-13T00:24:54;8.30;98.80
51175;DHT22;37240;50.104;20.010;2023-01-13T00:29:55;8.30;98.80
51175;DHT22;37240;50.104;20.010;2023-01-13T00:34:55;8.40;98.80
51175;DHT22;37240;50.104;20.010;2023-01-13T00:39:56;8.40;98.90
51175;DHT22;37240;50.104;20.010;2023-01-13T00:44:56;8.40;98.70
51175;DHT22;37240;50.104;20.010;2023-01-13T00:49:57;8.50;98.70
51175;DHT22;37240;50.104;20.010;2023-01-13T00:54:57;8.50;98.60
51175;DHT22;37240;50.104;20.010;2023-01-13T00:59:57;8.50;98.60
51175;DHT22;37240;50.104;20.010;2023-01-13T01:04:58;8.50;98.70
51175;DHT22;37240;50.104;20.010;2023-01-13T01:09:58;8.40;98.80
51175;DHT22;37240;50.104;20.010;2023-01-13T01:14:59;8.40;99.00
51175;DHT22;37240;50.104;20.010;2023-01-13T01:19:59;8.40;99.30
51175;DHT22;37240;50.104;20.010;2023-01-13T01:24:59;8.40;99.50
51175;DHT22;37240;50.104;20.010;2023-01-13T01:30:00;8.50;99.50
51175;DHT22;37240;50.104;20.010;2023-01-13T01:35:00;8.40;99.50
51175;DHT22;37240;50.104;20.010;2023-01-13T01:40:01;8.40;99.50
51175;DHT22;37240;50.104;20.010;2023-01-13T01:45:08;8.40;99.50
51175;DHT22;37240;50.104;20.010;2023-01-13T01:50:10;8.30;99.70
51175;DHT22;37240;50.104;20.010;2023-01-13T01:55:17;8.40;99.90
51175;DHT22;37240;50.104;20.010;2023-01-13T02:00:18;8.30;99.90
51175;DHT22;37240;50.104;20.010;2023-01-13T02:05:19;8.30;99.90
51175;DHT22;37240;50.104;20.010;2023-01-13T02:10:21;8.30;99.90
51175;DHT22;37240;50.104;20.010;2023-01-13T02:15:47;8.30;99.90
51175;DHT22;37240;50.104;20.010;2023-01-13T02:31:15;8.30;99.90
51175;DHT22;37240;50.104;20.010;2023-01-13T02:51:38;8.20;99.90
51175;DHT22;37240;50.104;20.010;2023-01-13T02:56:46;8.30;99.90
51175;DHT22;37240;50.104;20.010;2023-01-13T03:01:47;8.40;99.90
51175;DHT22;37240;50.104;20.010;2023-01-13T03:07:02;8.30;99.90
51175;DHT22;37240;50.104;20.010;2023-01-13T03:12:09;8.30;99.90
51175;DHT22;37240;50.104;20.010;2023-01-13T03:27:31;8.20;99.90
51175;DHT22;37240;50.104;20.010;2023-01-13T03:32:37;8.10;99.90
51175;DHT22;37240;50.104;20.010;2023-01-13T03:37:41;8.20;99.90
51175;DHT22;37240;50.104;20.010;2023-01-13T03:42:43;8.20;99.90
51175;DHT22;37240;50.104;20.010;2023-01-13T03:47:49;8.30;99.90
51175;DHT22;37240;50.104;20.010;2023-01-13T03:53:01;8.40;99.90
51175;DHT22;37240;50.104;20.010;2023-01-13T03:58:09;8.50;99.90
51175;DHT22;37240;50.104;20.010;2023-01-13T04:03:14;8.60;99.90
51175;DHT22;37240;50.104;20.010;2023-01-13T04:08:21;8.70;99.90
51175;DHT22;37240;50.104;20.010;2023-01-13T04:13:22;8.80;99.90
51175;DHT22;37240;50.104;20.010;2023-01-13T04:18:26;8.90;99.90
51175;DHT22;37240;50.104;20.010;2023-01-13T04:23:27;8.90;99.90
51175;DHT22;37240;50.104;20.010;2023-01-13T04:28:27;8.90;99.90
51175;DHT22;37240;50.104;20.010;2023-01-13T04:33:28;8.90;99.90
51175;DHT22;37240;50.104;20.010;2023-01-13T04:38:28;9.00;99.90
51175;DHT22;37240;50.104;20.010;2023-01-13T04:43:28;9.00;99.90
51175;DHT22;37240;50.104;20.010;2023-01-13T04:48:29;9.10;99.90
51175;DHT22;37240;50.104;20.010;2023-01-13T04:53:29;9.10;99.90
51175;DHT22;37240;50.104;20.010;2023-01-13T04:58:30;9.10;99.90
51175;DHT22;37240;50.104;20.010;2023-01-13T05:03:30;9.10;99.90
51175;DHT22;37240;50.104;20.010;2023-01-13T05:08:30;9.20;99.90
51175;DHT22;37240;50.104;20.010;2023-01-13T05:13:31;9.20;99.90
51175;DHT22;37240;50.104;20.010;2023-01-13T05:18:31;9.20;99.90
51175;DHT22;37240;50.104;20.010;2023-01-13T05:23:32;9.20;99.90
51175;DHT22;37240;50.104;20.010;2023-01-13T05:28:32;9.20;99.90
51175;DHT22;37240;50.104;20.010;2023-01-13T05:33:33;9.20;99.90
51175;DHT22;37240;50.104;20.010;2023-01-13T05:38:34;9.30;99.90
51175;DHT22;37240;50.104;20.010;2023-01-13T05:43:35;9.30;99.90
51175;DHT22;37240;50.104;20.010;2023-01-13T05:48:36;9.40;99.90
51175;DHT22;37240;50.104;20.010;2023-01-13T05:53:38;9.40;99.90
51175;DHT22;37240;50.104;20.010;2023-01-13T05:58:39;9.50;99.90
51175;DHT22;37240;50.104;20.010;2023-01-13T06:03:39;9.50;99.90
51175;DHT22;37240;50.104;20.010;2023-01-13T06:08:40;9.60;99.90
51175;DHT22;37240;50.104;20.010;2023-01-13T06:13:40;9.50;99.90
51175;DHT22;37240;50.104;20.010;2023-01-13T06:18:41;9.60;99.90
51175;DHT22;37240;50.104;20.010;2023-01-13T06:23:41;9.60;99.90
51175;DHT22;37240;50.104;20.010;2023-01-13T06:28:41;9.60;99.90
51175;DHT22;37240;50.104;20.010;2023-01-13T06:33:43;9.70;99.80
51175;DHT22;37240;50.104;20.010;2023-01-13T06:38:46;9.70;99.70
51175;DHT22;37240;50.104;20.010;2023-01-13T06:43:49;9.70;99.70
51175;DHT22;37240;50.104;20.010;2023-01-13T06:48:49;9.80;99.60
51175;DHT22;37240;50.104;20.010;2023-01-13T06:53:49;9.80;99.60
51175;DHT22;37240;50.104;20.010;2023-01-13T06:58:50;9.80;99.60
51175;DHT22;37240;50.104;20.010;2023-01-13T07:03:50;9.70;99.60
51175;DHT22;37240;50.104;20.010;2023-01-13T07:08:51;9.80;99.90
51175;DHT22;37240;50.104;20.010;2023-01-13T07:13:51;9.80;99.50
51175;DHT22;37240;50.104;20.010;2023-01-13T07:18:51;9.80;99.60
51175;DHT22;37240;50.104;20.010;2023-01-13T07:23:52;9.80;99.50
51175;DHT22;37240;50.104;20.010;2023-01-13T07:28:52;9.80;99.50
51175;DHT22;37240;50.104;20.010;2023-01-13T07:33:53;9.90;99.50
51175;DHT22;37240;50.104;20.010;2023-01-13T07:38:53;10.00;99.30
51175;DHT22;37240;50.104;20.010;2023-01-13T07:43:53;9.90;99.40
51175;DHT22;37240;50.104;20.010;2023-01-13T07:48:54;9.90;99.50
51175;DHT22;37240;50.104;20.010;2023-01-13T07:53:54;10.00;99.40
51175;DHT22;37240;50.104;20.010;2023-01-13T08:34:11;8.70;99.90
51175;DHT22;37240;50.104;20.010;2023-01-13T08:39:11;9.10;99.90
51175;DHT22;37240;50.104;20.010;2023-01-13T08:44:12;9.80;99.90
51175;DHT22;37240;50.104;20.010;2023-01-13T08:49:12;10.20;98.80
51175;DHT22;37240;50.104;20.010;2023-01-13T08:54:13;10.50;98.20
51175;DHT22;37240;50.104;20.010;2023-01-13T08:59:15;10.80;97.60
51175;DHT22;37240;50.104;20.010;2023-01-13T09:04:19;10.90;97.20
51175;DHT22;37240;50.104;20.010;2023-01-13T09:09:20;11.10;96.70
51175;DHT22;37240;50.104;20.010;2023-01-13T09:14:23;11.30;96.60
51175;DHT22;37240;50.104;20.010;2023-01-13T09:19:25;11.40;95.90
51175;DHT22;37240;50.104;20.010;2023-01-13T09:24:25;11.40;95.40
51175;DHT22;37240;50.104;20.010;2023-01-13T09:29:26;11.60;94.90
51175;DHT22;37240;50.104;20.010;2023-01-13T09:34:27;11.80;94.40
51175;DHT22;37240;50.104;20.010;2023-01-13T09:39:27;11.90;93.90
51175;DHT22;37240;50.104;20.010;2023-01-13T09:44:51;12.10;93.10
51175;DHT22;37240;50.104;20.010;2023-01-13T09:50:02;12.10;92.60
51175;DHT22;37240;50.104;20.010;2023-01-13T09:55:22;12.10;92.20
51175;DHT22;37240;50.104;20.010;2023-01-13T10:00:44;12.10;92.30
51175;DHT22;37240;50.104;20.010;2023-01-13T10:05:53;12.10;92.10
51175;DHT22;37240;50.104;20.010;2023-01-13T10:10:57;12.10;92.10
51175;DHT22;37240;50.104;20.010;2023-01-13T10:21:37;12.20;92.00
51175;DHT22;37240;50.104;20.010;2023-01-13T10:31:47;12.40;91.40
51175;DHT22;37240;50.104;20.010;2023-01-13T10:37:02;12.60;91.20
51175;DHT22;37240;50.104;20.010;2023-01-13T10:42:05;12.80;90.70
51175;DHT22;37240;50.104;20.010;2023-01-13T10:47:21;12.90;90.10
51175;DHT22;37240;50.104;20.010;2023-01-13T10:52:31;12.90;90.00
51175;DHT22;37240;50.104;20.010;2023-01-13T10:57:35;12.90;89.10
51175;DHT22;37240;50.104;20.010;2023-01-13T11:02:36;13.10;89.30
51175;DHT22;37240;50.104;20.010;2023-01-13T11:07:45;13.10;88.70
51175;DHT22;37240;50.104;20.010;2023-01-13T11:13:27;13.10;88.10
51175;DHT22;37240;50.104;20.010;2023-01-13T11:18:56;13.10;88.10
51175;DHT22;37240;50.104;20.010;2023-01-13T11:24:20;13.20;87.60
51175;DHT22;37240;50.104;20.010;2023-01-13T11:34:35;13.30;87.00
51175;DHT22;37240;50.104;20.010;2023-01-13T11:44:55;13.40;86.70
51175;DHT22;37240;50.104;20.010;2023-01-13T11:49:59;13.50;85.50
51175;DHT22;37240;50.104;20.010;2023-01-13T11:55:05;13.50;86.80
51175;DHT22;37240;50.104;20.010;2023-01-13T12:05:40;13.60;84.70
51175;DHT22;37240;50.104;20.010;2023-01-13T12:21:21;13.60;84.30
51175;DHT22;37240;50.104;20.010;2023-01-13T12:26:22;13.60;84.40
51175;DHT22;37240;50.104;20.010;2023-01-13T12:31:24;13.60;84.10
51175;DHT22;37240;50.104;20.010;2023-01-13T12:36:30;13.70;84.50
51175;DHT22;37240;50.104;20.010;2023-01-13T12:41:39;13.70;83.90
51175;DHT22;37240;50.104;20.010;2023-01-13T12:46:50;13.70;83.90
51175;DHT22;37240;50.104;20.010;2023-01-13T12:56:52;13.50;83.60
51175;DHT22;37240;50.104;20.010;2023-01-13T13:02:26;13.50;83.90
51175;DHT22;37240;50.104;20.010;2023-01-13T13:07:39;13.50;84.10
51175;DHT22;37240;50.104;20.010;2023-01-13T13:17:42;13.50;83.80
51175;DHT22;37240;50.104;20.010;2023-01-13T13:22:43;13.50;83.70
51175;DHT22;37240;50.104;20.010;2023-01-13T13:28:01;13.40;83.90
51175;DHT22;37240;50.104;20.010;2023-01-13T13:43:30;13.40;84.50
51175;DHT22;37240;50.104;20.010;2023-01-13T13:48:33;13.40;84.50
51175;DHT22;37240;50.104;20.010;2023-01-13T13:53:36;13.40;84.50
51175;DHT22;37240;50.104;20.010;2023-01-13T13:58:38;13.30;84.80
51175;DHT22;37240;50.104;20.010;2023-01-13T14:03:39;13.30;84.50
51175;DHT22;37240;50.104;20.010;2023-01-13T14:08:41;13.30;84.80
51175;DHT22;37240;50.104;20.010;2023-01-13T14:14:11;13.30;84.80
51175;DHT22;37240;50.104;20.010;2023-01-13T14:19:49;13.30;84.50
51175;DHT22;37240;50.104;20.010;2023-01-13T14:24:50;13.30;84.80
51175;DHT22;37240;50.104;20.010;2023-01-13T14:29:52;13.20;85.10
51175;DHT22;37240;50.104;20.010;2023-01-13T14:34:53;13.20;85.10
51175;DHT22;37240;50.104;20.010;2023-01-13T14:39:54;13.10;85.20
51175;DHT22;37240;50.104;20.010;2023-01-13T14:44:54;13.10;85.30
51175;DHT22;37240;50.104;20.010;2023-01-13T14:50:22;13.20;85.30
51175;DHT22;37240;50.104;20.010;2023-01-13T14:55:31;13.10;85.60
51175;DHT22;37240;50.104;20.010;2023-01-13T15:00:32;13.10;85.80
51175;DHT22;37240;50.104;20.010;2023-01-13T15:05:35;13.00;86.00
51175;DHT22;37240;50.104;20.010;2023-01-13T15:10:48;13.00;86.20
51175;DHT22;37240;50.104;20.010;2023-01-13T15:15:51;13.00;86.40
51175;DHT22;37240;50.104;20.010;2023-01-13T15:20:52;12.90;87.10
51175;DHT22;37240;50.104;20.010;2023-01-13T15:25:52;12.90;87.00
51175;DHT22;37240;50.104;20.010;2023-01-13T15:30:54;12.80;87.30
51175;DHT22;37240;50.104;20.010;2023-01-13T15:35:55;12.80;87.30
51175;DHT22;37240;50.104;20.010;2023-01-13T15:40:55;12.80;87.50
51175;DHT22;37240;50.104;20.010;2023-01-13T15:45:56;12.70;87.20
51175;DHT22;37240;50.104;20.010;2023-01-13T15:50:57;12.70;87.40
51175;DHT22;37240;50.104;20.010;2023-01-13T15:55:58;12.70;87.40
51175;DHT22;37240;50.104;20.010;2023-01-13T16:00:59;12.70;88.30
51175;DHT22;37240;50.104;20.010;2023-01-13T16:05:59;12.70;87.50
51175;DHT22;37240;50.104;20.010;2023-01-13T16:11:00;12.70;87.60
51175;DHT22;37240;50.104;20.010;2023-01-13T16:16:00;12.60;87.30
51175;DHT22;37240;50.104;20.010;2023-01-13T16:21:01;12.60;87.40
51175;DHT22;37240;50.104;20.010;2023-01-13T16:26:12;12.50;87.40
51175;DHT22;37240;50.104;20.010;2023-01-13T16:31:26;12.60;87.30
51175;DHT22;37240;50.104;20.010;2023-01-13T16:36:33;12.60;87.10
51175;DHT22;37240;50.104;20.010;2023-01-13T16:41:34;12.60;87.30
51175;DHT22;37240;50.104;20.010;2023-01-13T16:46:34;12.60;87.30
51175;DHT22;37240;50.104;20.010;2023-01-13T16:51:35;12.50;87.30
51175;DHT22;37240;50.104;20.010;2023-01-13T16:56:36;12.50;87.30
51175;DHT22;37240;50.104;20.010;2023-01-13T17:01:39;12.50;87.20
51175;DHT22;37240;50.104;20.010;2023-01-13T17:06:59;12.50;87.30
51175;DHT22;37240;50.104;20.010;2023-01-13T17:12:02;12.40;87.70
51175;DHT22;37240;50.104;20.010;2023-01-13T17:17:03;12.40;87.80
51175;DHT22;37240;50.104;20.010;2023-01-13T17:22:04;12.40;88.20
51175;DHT22;37240;50.104;20.010;2023-01-13T17:27:04;12.40;89.00
51175;DHT22;37240;50.104;20.010;2023-01-13T17:32:05;12.40;88.80
51175;DHT22;37240;50.104;20.010;2023-01-13T17:37:05;12.40;88.80
51175;DHT22;37240;50.104;20.010;2023-01-13T17:42:06;12.40;89.50
51175;DHT22;37240;50.104;20.010;2023-01-13T17:47:06;12.30;90.00
51175;DHT22;37240;50.104;20.010;2023-01-13T17:52:07;12.30;90.10
51175;DHT22;37240;50.104;20.010;2023-01-13T17:57:07;12.30;90.30
51175;DHT22;37240;50.104;20.010;2023-01-13T18:02:10;12.30;90.30
51175;DHT22;37240;50.104;20.010;2023-01-13T18:07:11;12.30;90.60
51175;DHT22;37240;50.104;20.010;2023-01-13T18:12:12;12.20;90.50
51175;DHT22;37240;50.104;20.010;2023-01-13T18:17:12;12.30;90.60
51175;DHT22;37240;50.104;20.010;2023-01-13T18:22:13;12.30;90.70
51175;DHT22;37240;50.104;20.010;2023-01-13T18:27:15;12.30;90.70
51175;DHT22;37240;50.104;20.010;2023-01-13T18:32:16;12.30;90.90
51175;DHT22;37240;50.104;20.010;2023-01-13T18:37:17;12.20;91.00
51175;DHT22;37240;50.104;20.010;2023-01-13T18:42:18;12.20;91.10
51175;DHT22;37240;50.104;20.010;2023-01-13T18:47:18;12.20;91.10
51175;DHT22;37240;50.104;20.010;2023-01-13T18:52:19;12.10;91.20
51175;DHT22;37240;50.104;20.010;2023-01-13T18:57:20;12.00;91.40
51175;DHT22;37240;50.104;20.010;2023-01-13T19:02:20;12.00;91.50
51175;DHT22;37240;50.104;20.010;2023-01-13T19:07:21;12.00;91.50
51175;DHT22;37240;50.104;20.010;2023-01-13T19:12:22;12.00;91.50
51175;DHT22;37240;50.104;20.010;2023-01-13T19:17:24;12.00;91.60
51175;DHT22;37240;50.104;20.010;2023-01-13T19:22:31;12.10;91.60
51175;DHT22;37240;50.104;20.010;2023-01-13T19:27:31;12.10;91.70
51175;DHT22;37240;50.104;20.010;2023-01-13T19:32:32;12.10;91.90
51175;DHT22;37240;50.104;20.010;2023-01-13T19:37:33;12.20;92.80
51175;DHT22;37240;50.104;20.010;2023-01-13T19:42:34;12.20;93.00
51175;DHT22;37240;50.104;20.010;2023-01-13T19:47:34;12.30;93.30
51175;DHT22;37240;50.104;20.010;2023-01-13T19:52:35;12.30;93.90
51175;DHT22;37240;50.104;20.010;2023-01-13T19:57:35;12.20;94.30
51175;DHT22;37240;50.104;20.010;2023-01-13T20:02:36;12.20;95.00
51175;DHT22;37240;50.104;20.010;2023-01-13T20:07:36;12.00;95.80
51175;DHT22;37240;50.104;20.010;2023-01-13T20:12:37;11.90;96.50
51175;DHT22;37240;50.104;20.010;2023-01-13T20:17:38;11.90;97.60
51175;DHT22;37240;50.104;20.010;2023-01-13T20:22:39;11.80;98.20
51175;DHT22;37240;50.104;20.010;2023-01-13T20:27:39;11.80;99.00
51175;DHT22;37240;50.104;20.010;2023-01-13T20:32:41;11.50;99.90
51175;DHT22;37240;50.104;20.010;2023-01-13T20:37:42;11.30;99.90
51175;DHT22;37240;50.104;20.010;2023-01-13T20:42:42;11.30;99.90
51175;DHT22;37240;50.104;20.010;2023-01-13T20:47:44;11.20;99.90
51175;DHT22;37240;50.104;20.010;2023-01-13T20:52:45;11.20;99.90
51175;DHT22;37240;50.104;20.010;2023-01-13T20:57:45;11.10;99.90
51175;DHT22;37240;50.104;20.010;2023-01-13T21:02:46;11.00;99.90
51175;DHT22;37240;50.104;20.010;2023-01-13T21:07:47;11.00;99.90
51175;DHT22;37240;50.104;20.010;2023-01-13T21:12:47;10.90;99.90
51175;DHT22;37240;50.104;20.010;2023-01-13T21:17:49;10.80;99.90
51175;DHT22;37240;50.104;20.010;2023-01-13T21:22:50;10.60;99.90
51175;DHT22;37240;50.104;20.010;2023-01-13T21:27:54;10.70;99.90
51175;DHT22;37240;50.104;20.010;2023-01-13T21:32:55;10.80;99.90
51175;DHT22;37240;50.104;20.010;2023-01-13T21:37:56;10.70;99.90
51175;DHT22;37240;50.104;20.010;2023-01-13T21:42:56;10.70;99.90
51175;DHT22;37240;50.104;20.010;2023-01-13T21:47:57;10.70;99.90
51175;DHT22;37240;50.104;20.010;2023-01-13T21:52:58;10.70;99.90
51175;DHT22;37240;50.104;20.010;2023-01-13T21:58:18;10.70;99.90
51175;DHT22;37240;50.104;20.010;2023-01-13T22:03:19;10.70;99.90
51175;DHT22;37240;50.104;20.010;2023-01-13T22:08:19;10.60;99.90
51175;DHT22;37240;50.104;20.010;2023-01-13T22:13:20;10.70;99.90
51175;DHT22;37240;50.104;20.010;2023-01-13T22:18:20;10.60;99.90
51175;DHT22;37240;50.104;20.010;2023-01-13T22:23:21;10.60;99.90
51175;DHT22;37240;50.104;20.010;2023-01-13T22:28:21;10.60;99.90
51175;DHT22;37240;50.104;20.010;2023-01-13T22:33:22;10.60;99.90
51175;DHT22;37240;50.104;20.010;2023-01-13T22:38:23;10.60;99.90
51175;DHT22;37240;50.104;20.010;2023-01-13T22:43:23;10.50;99.90
51175;DHT22;37240;50.104;20.010;2023-01-13T22:48:24;10.40;99.90
51175;DHT22;37240;50.104;20.010;2023-01-13T22:53:25;10.40;99.90
51175;DHT22;37240;50.104;20.010;2023-01-13T22:58:26;10.30;99.90
51175;DHT22;37240;50.104;20.010;2023-01-13T23:03:27;10.40;99.90
51175;DHT22;37240;50.104;20.010;2023-01-13T23:08:27;10.40;99.90
51175;DHT22;37240;50.104;20.010;2023-01-13T23:13:28;10.30;99.90
51175;DHT22;37240;50.104;20.010;2023-01-13T23:18:29;10.20;99.90
51175;DHT22;37240;50.104;20.010;2023-01-13T23:23:31;10.20;99.90
51175;DHT22;37240;50.104;20.010;2023-01-13T23:28:33;10.20;99.90
51175;DHT22;37240;50.104;20.010;2023-01-13T23:33:34;10.20;99.90
51175;DHT22;37240;50.104;20.010;2023-01-13T23:38:35;10.20;99.90
51175;DHT22;37240;50.104;20.010;2023-01-13T23:43:35;10.10;99.90
51175;DHT22;37240;50.104;20.010;2023-01-13T23:48:36;10.10;99.90
51175;DHT22;37240;50.104;20.010;2023-01-13T23:53:40;10.00;99.90
51175;DHT22;37240;50.104;20.010;2023-01-13T23:58:41;10.00;99.90
